createdAt,value
2023-06-28T00:02:11.915Z,97516.31
2023-06-28T00:07:15.429Z,97507.94
2023-06-28T00:12:21.045Z,97512.94
2023-06-28T00:17:28.868Z,97517.75
2023-06-28T00:22:32.759Z,97522.44
2023-06-28T00:27:36.121Z,97531.63
2023-06-28T00:32:40.827Z,97532.44
2023-06-28T00:37:44.262Z,97536.78
2023-06-28T00:42:48.327Z,97536.34
2023-06-28T00:47:56.177Z,97540.97
2023-06-28T00:52:59.711Z,97532.84
2023-06-28T00:58:03.246Z,97524.38
2023-06-28T01:03:08.092Z,97532.00
2023-06-28T01:08:13.320Z,97540.63
2023-06-28T01:13:17.663Z,97552.97
2023-06-28T01:18:25.185Z,97552.53
2023-06-28T01:23:30.413Z,97562.31
2023-06-28T01:28:35.739Z,97564.66
2023-06-28T01:33:39.512Z,97562.09
2023-06-28T01:38:45.205Z,97567.41
2023-06-28T01:43:48.758Z,97568.88
2023-06-28T01:48:52.232Z,97564.78
2023-06-28T01:53:57.860Z,97576.97
2023-06-28T01:59:01.441Z,97573.25
2023-06-28T02:04:06.112Z,97571.78
2023-06-28T02:09:11.100Z,97573.00
2023-06-28T02:14:15.287Z,97573.38
2023-06-28T02:19:19.982Z,97575.41
2023-06-28T02:24:26.419Z,97586.34
2023-06-28T02:29:30.434Z,97573.38
2023-06-28T02:34:33.959Z,97579.50
2023-06-28T02:39:38.635Z,97583.09
2023-06-28T02:44:44.332Z,97576.59
2023-06-28T02:49:48.442Z,97581.31
2023-06-28T02:54:53.249Z,97582.56
2023-06-28T02:59:56.712Z,97590.63
2023-06-28T03:05:00.163Z,97576.53
2023-06-28T03:10:06.089Z,97578.97
2023-06-28T03:15:10.659Z,97584.72
2023-06-28T03:20:14.419Z,97586.50
2023-06-28T03:25:19.224Z,97586.53
2023-06-28T03:30:22.699Z,97588.13
2023-06-28T03:35:27.184Z,97585.72
2023-06-28T03:40:32.575Z,97605.31
2023-06-28T03:45:36.252Z,97607.38
2023-06-28T03:50:39.716Z,97613.34
2023-06-28T03:55:44.572Z,97606.19
2023-06-28T04:00:47.818Z,97613.06
2023-06-28T04:05:51.251Z,97615.13
2023-06-28T04:10:57.000Z,97610.56
2023-06-28T04:16:00.734Z,97601.66
2023-06-28T04:21:04.060Z,97609.47
2023-06-28T04:26:13.776Z,97605.59
2023-06-28T04:31:18.585Z,97615.56
2023-06-28T04:36:22.630Z,97606.97
2023-06-28T04:41:27.296Z,97607.66
2023-06-28T04:46:34.004Z,97617.84
2023-06-28T04:51:37.517Z,97609.56
2023-06-28T04:56:40.808Z,97616.47
2023-06-28T05:01:45.669Z,97608.09
2023-06-28T05:06:49.385Z,97610.56
2023-06-28T05:11:52.755Z,97604.41
2023-06-28T05:16:57.608Z,97607.38
2023-06-28T05:22:00.833Z,97612.88
2023-06-28T05:27:04.464Z,97605.47
2023-06-28T05:32:10.204Z,97610.44
2023-06-28T05:37:13.849Z,97612.22
2023-06-28T05:42:17.212Z,97601.19
2023-06-28T05:47:22.078Z,97607.28
2023-06-28T05:52:25.500Z,97606.03
2023-06-28T05:57:28.857Z,97602.53
2023-06-28T06:02:34.381Z,97604.53
2023-06-28T06:07:41.295Z,97609.19
2023-06-28T06:12:45.187Z,97605.34
2023-06-28T06:17:50.227Z,97604.81
2023-06-28T06:22:54.039Z,97599.06
2023-06-28T06:27:57.629Z,97595.56
2023-06-28T06:33:02.701Z,97601.72
2023-06-28T06:38:06.267Z,97598.06
2023-06-28T06:43:09.860Z,97592.00
2023-06-28T06:48:14.824Z,97585.16
2023-06-28T06:53:18.349Z,97596.06
2023-06-28T06:58:21.807Z,97600.00
2023-06-28T07:03:26.881Z,97602.38
2023-06-28T07:08:30.674Z,97606.88
2023-06-28T07:13:34.074Z,97592.25
2023-06-28T07:18:41.111Z,97595.00
2023-06-28T07:23:44.908Z,97595.72
2023-06-28T07:28:48.535Z,97597.31
2023-06-28T07:33:53.699Z,97591.81
2023-06-28T07:38:57.504Z,97593.78
2023-06-28T07:44:00.921Z,97596.75
2023-06-28T07:49:05.719Z,97594.88
2023-06-28T07:54:20.385Z,97596.53
2023-06-28T07:59:32.500Z,97591.94
2023-06-28T08:04:39.809Z,97588.13
2023-06-28T08:09:44.139Z,97596.09
2023-06-28T08:14:47.486Z,97587.13
2023-06-28T08:19:52.644Z,97580.88
2023-06-28T08:24:56.324Z,97585.06
2023-06-28T08:29:59.965Z,97578.97
2023-06-28T08:35:05.619Z,97578.22
2023-06-28T08:40:09.897Z,97580.94
2023-06-28T08:45:16.480Z,97581.91
2023-06-28T08:50:22.442Z,97582.84
2023-06-28T08:55:26.181Z,97585.78
2023-06-28T09:00:30.179Z,97568.66
2023-06-28T09:05:35.296Z,97573.84
2023-06-28T09:10:39.070Z,97566.88
2023-06-28T09:15:42.612Z,97555.03
2023-06-28T09:20:51.986Z,97559.44
2023-06-28T09:25:56.220Z,97554.81
2023-06-28T09:30:59.598Z,97560.75
2023-06-28T09:36:04.738Z,97562.69
2023-06-28T09:41:08.083Z,97552.25
2023-06-28T09:46:15.209Z,97542.91
2023-06-28T09:51:21.142Z,97550.59
2023-06-28T09:56:35.332Z,97536.22
2023-06-28T10:01:41.667Z,97532.44
2023-06-28T10:06:47.801Z,97533.50
2023-06-28T10:11:51.455Z,97537.28
2023-06-28T10:16:56.215Z,97543.06
2023-06-28T10:22:01.334Z,97547.78
2023-06-28T10:27:05.684Z,97531.03
2023-06-28T10:32:11.868Z,97535.31
2023-06-28T10:37:21.958Z,97543.75
2023-06-28T10:42:25.559Z,97530.63
2023-06-28T10:47:29.830Z,97534.41
2023-06-28T10:52:36.190Z,97541.22
2023-06-28T10:57:40.805Z,97530.00
2023-06-28T11:02:57.485Z,97515.88
2023-06-28T11:08:09.259Z,97529.34
2023-06-28T11:13:12.914Z,97519.78
2023-06-28T11:18:20.774Z,97520.34
2023-06-28T11:23:31.200Z,97499.75
2023-06-28T11:28:35.868Z,97509.38
2023-06-28T11:33:39.677Z,97500.53
2023-06-28T11:38:46.991Z,97515.66
2023-06-28T11:43:51.177Z,97510.13
2023-06-28T11:48:54.583Z,97513.47
2023-06-28T11:53:59.484Z,97501.59
2023-06-28T11:59:16.457Z,97497.16
2023-06-28T12:04:23.455Z,97512.34
2023-06-28T12:09:30.780Z,97526.34
2023-06-28T12:14:41.143Z,97509.78
2023-06-28T12:19:44.491Z,97498.44
2023-06-28T12:24:49.477Z,97504.13
2023-06-28T12:29:52.987Z,97498.91
2023-06-28T12:34:56.594Z,97504.31
2023-06-28T12:40:06.588Z,97494.44
2023-06-28T12:45:12.784Z,97498.91
2023-06-28T12:50:17.443Z,97498.19
2023-06-28T12:55:22.485Z,97488.66
2023-06-28T13:00:25.772Z,97484.34
2023-06-28T13:05:29.228Z,97499.00
2023-06-28T13:10:34.135Z,97494.63
2023-06-28T13:15:37.899Z,97483.47
2023-06-28T13:20:41.772Z,97483.16
2023-06-28T13:25:46.876Z,97477.75
2023-06-28T13:30:50.446Z,97472.72
2023-06-28T13:35:54.021Z,97460.81
2023-06-28T13:40:59.146Z,97471.56
2023-06-28T13:46:02.576Z,97470.25
2023-06-28T13:51:06.235Z,97468.31
2023-06-28T13:56:11.575Z,97465.69
2023-06-28T14:01:16.479Z,97470.03
2023-06-28T14:06:20.636Z,97461.88
2023-06-28T14:11:26.423Z,97457.78
2023-06-28T14:16:31.543Z,97452.69
2023-06-28T14:21:35.099Z,97445.94
2023-06-28T14:26:40.414Z,97458.00
2023-06-28T14:31:43.778Z,97439.84
2023-06-28T14:36:47.616Z,97444.88
2023-06-28T14:41:53.331Z,97435.28
2023-06-28T14:46:57.071Z,97445.19
2023-06-28T14:52:00.356Z,97441.88
2023-06-28T14:57:05.883Z,97440.28
2023-06-28T15:02:09.434Z,97435.66
2023-06-28T15:07:12.995Z,97445.53
2023-06-28T15:12:18.513Z,97434.88
2023-06-28T15:17:22.093Z,97427.31
2023-06-28T15:22:25.442Z,97431.63
2023-06-28T15:27:30.155Z,97428.88
2023-06-28T15:32:34.832Z,97416.66
2023-06-28T15:37:39.013Z,97415.25
2023-06-28T15:42:43.928Z,97415.25
2023-06-28T15:47:47.427Z,97422.72
2023-06-28T15:52:51.015Z,97423.84
2023-06-28T15:57:55.892Z,97430.78
2023-06-28T16:02:59.393Z,97417.41
2023-06-28T16:08:02.792Z,97420.09
2023-06-28T16:13:09.637Z,97418.66
2023-06-28T16:18:13.274Z,97426.00
2023-06-28T16:23:16.865Z,97437.44
2023-06-28T16:28:21.563Z,97427.50
2023-06-28T16:33:24.851Z,97431.91
2023-06-28T16:38:28.423Z,97427.97
2023-06-28T16:43:33.370Z,97433.47
2023-06-28T16:48:37.871Z,97433.19
2023-06-28T16:53:42.004Z,97430.25
2023-06-28T16:58:47.566Z,97423.53
2023-06-28T17:03:51.294Z,97434.97
2023-06-28T17:08:55.448Z,97436.22
2023-06-28T17:14:03.500Z,97428.13
2023-06-28T17:19:07.712Z,97436.63
2023-06-28T17:24:11.204Z,97428.94
2023-06-28T17:29:16.059Z,97437.28
2023-06-28T17:34:19.474Z,97436.22
2023-06-28T17:39:22.857Z,97443.47
2023-06-28T17:44:27.960Z,97454.41
2023-06-28T17:49:31.466Z,97447.84
2023-06-28T17:54:36.543Z,97454.91
2023-06-28T17:59:41.770Z,97459.06
2023-06-28T18:04:45.913Z,97449.81
2023-06-28T18:09:49.846Z,97451.22
2023-06-28T18:14:55.013Z,97453.09
2023-06-28T18:19:58.342Z,97464.47
2023-06-28T18:25:01.593Z,97467.47
2023-06-28T18:30:07.549Z,97465.69
2023-06-28T18:35:11.878Z,97471.28
2023-06-28T18:40:15.688Z,97473.81
2023-06-28T18:45:20.594Z,97482.56
2023-06-28T18:50:24.527Z,97475.06
2023-06-28T18:55:27.832Z,97473.81
2023-06-28T19:00:32.469Z,97482.66
2023-06-28T19:05:35.745Z,97481.88
2023-06-28T19:10:39.089Z,97477.53
2023-06-28T19:15:44.398Z,97478.94
2023-06-28T19:20:48.892Z,97482.56
2023-06-28T19:25:52.894Z,97487.97
2023-06-28T19:30:57.913Z,97495.06
2023-06-28T19:36:01.065Z,97513.66
2023-06-28T19:41:04.412Z,97511.81
2023-06-28T19:46:10.101Z,97511.97
2023-06-28T19:51:13.754Z,97509.00
2023-06-28T19:56:17.120Z,97524.19
2023-06-28T20:01:22.191Z,97531.56
2023-06-28T20:06:26.038Z,97528.81
2023-06-28T20:11:29.537Z,97530.41
2023-06-28T20:16:35.373Z,97533.56
2023-06-28T20:21:38.758Z,97545.53
2023-06-28T20:26:42.580Z,97545.84
2023-06-28T20:31:47.671Z,97546.56
2023-06-28T20:36:52.501Z,97548.94
2023-06-28T20:41:57.340Z,97547.31
2023-06-28T20:47:04.180Z,97543.84
2023-06-28T20:52:08.877Z,97548.38
2023-06-28T20:57:12.441Z,97547.53
2023-06-28T21:02:17.567Z,97549.59
2023-06-28T21:07:21.307Z,97556.13
2023-06-28T21:12:25.304Z,97558.91
2023-06-28T21:17:30.078Z,97551.41
2023-06-28T21:22:33.526Z,97549.41
2023-06-28T21:27:37.295Z,97559.41
2023-06-28T21:32:43.697Z,97551.72
2023-06-28T21:37:47.541Z,97553.03
2023-06-28T21:42:50.993Z,97560.09
2023-06-28T21:47:58.082Z,97560.53
2023-06-28T21:53:01.691Z,97560.94
2023-06-28T21:58:05.193Z,97558.28
2023-06-28T22:03:10.293Z,97558.72
2023-06-28T22:08:15.101Z,97559.00
2023-06-28T22:13:18.616Z,97563.34
2023-06-28T22:18:23.572Z,97558.41
2023-06-28T22:23:26.917Z,97554.63
2023-06-28T22:28:30.202Z,97570.88
2023-06-28T22:33:34.794Z,97559.22
2023-06-28T22:38:50.989Z,97552.97
2023-06-28T22:43:55.745Z,97561.34
2023-06-28T22:49:00.377Z,97562.84
2023-06-28T22:54:04.729Z,97566.16
2023-06-28T22:59:08.190Z,97560.56
2023-06-28T23:04:12.998Z,97553.81
2023-06-28T23:09:16.427Z,97552.00
2023-06-28T23:14:20.275Z,97559.31
2023-06-28T23:19:25.081Z,97551.34
2023-06-28T23:24:29.489Z,97550.22
2023-06-28T23:29:32.957Z,97550.44
2023-06-28T23:34:37.573Z,97545.44
2023-06-28T23:39:40.891Z,97537.38
2023-06-28T23:44:44.484Z,97543.59
2023-06-28T23:49:52.743Z,97538.84
2023-06-28T23:54:56.008Z,97542.13
2023-06-28T23:59:59.256Z,97548.44
